Lyman, Wyoming
Current Conditions -  °F | °C
As of 11:15 PM on Saturday 22 Nov 2014 (Local Time) from KFBR Reporting Station
Scattered Clouds Scattered Clouds  
Wind Chill: 15°   Ceiling: Unl
Heat Index: 28°   Visibility: 10mi
Dew Point: 26°   Wind: 21mph
Humidity: 90%   Direction: 260°W
Pressure: 29.86"   Gusts: 25mph
Location:  41.33°N, 110.29°W
Report Text: KFBR 230615Z AUTO 26018G22KT 10SM SCT039 SCT050 M02/M03 A2986 RMK AO2 T10201035
Loading
Personal Weather Stations






























Interactive Weather Map New forecast layout! Learn more

10-Day Weather Forecast

Advertisements
Track Severe Weather on mobile